Terminal Aerodrome Forecast
Issued by NWS

Home | Current Version | Previous Version | Text Only | Print | Product List | Glossary On
Versions: 1 2 3 4 5 6 7 8 9 10 11 12 13 14 15 16 17 18 19 20 21 22 23
000
FTUS46 KMTR 202323
TAFOAK
TAF
KOAK 202323Z 2100/2206 27014KT P6SM SKC
     FM210400 27010KT P6SM FEW010
     FM211100 27006KT P6SM BKN009
     FM211600 27005KT P6SM SCT010
     FM212000 27012KT P6SM SKC
     FM220400 29006KT P6SM SKC=

USA.gov is the U.S. government's official web portal to all federal, state and local government web resources and services.